Time;durP1;ratioP1;P1;durP2;ratioP2;P2;SDS_P1;SDS_P2;PMS_P1;PMS_P2;Temp;Humidity;BMP_temperature;BMP_pressure;BME280_temperature;BME280_humidity;BME280_pressure;Samples;Min_cycle;Max_cycle;Signal;HPM_P1;HPM_P2
2022/07/12 00:01:04;;;;;;;1.88;1.77;;;;;;;15.49;73.53;94966.00;5053332;28;20243;-65
2022/07/12 00:03:29;;;;;;;3.97;1.77;;;;;;;15.40;73.07;94979.66;5053101;28;20181;-64
2022/07/12 00:05:56;;;;;;;2.47;2.00;;;;;;;15.49;74.31;94958.31;5053051;28;20192;-63
2022/07/12 00:08:22;;;;;;;1.70;1.60;;;;;;;15.20;71.42;95016.66;5053237;28;20738;-64
2022/07/12 00:10:47;;;;;;;2.15;1.70;;;;;;;15.31;72.86;94983.16;5053012;28;20698;-64
2022/07/12 00:13:12;;;;;;;1.92;1.70;;;;;;;15.37;73.05;94982.53;5053095;28;20202;-63
2022/07/12 00:15:38;;;;;;;2.78;1.80;;;;;;;15.46;75.36;94935.53;5052814;28;20640;-64
2022/07/12 00:18:03;;;;;;;3.67;1.90;;;;;;;15.43;76.73;94910.22;5052809;28;20201;-63
2022/07/12 00:20:29;;;;;;;2.33;1.88;;;;;;;15.57;76.12;94928.41;5053176;28;20178;-60
2022/07/12 00:22:55;;;;;;;2.67;2.03;;;;;;;15.72;75.43;94938.88;5052997;28;20213;-63
2022/07/12 00:25:20;;;;;;;4.10;2.00;;;;;;;15.64;74.83;94955.00;5052778;28;20198;-63
2022/07/12 00:27:46;;;;;;;4.03;2.55;;;;;;;15.42;77.62;94906.00;5052842;28;20212;-63
2022/07/12 00:30:11;;;;;;;4.38;2.22;;;;;;;15.61;76.55;94928.91;5052563;28;20263;-64
2022/07/12 00:32:37;;;;;;;3.42;2.20;;;;;;;15.57;75.80;94945.53;5052462;28;20307;-64
2022/07/12 00:35:03;;;;;;;2.47;2.20;;;;;;;15.46;76.08;94930.41;5052488;28;20200;-63
2022/07/12 00:37:29;;;;;;;4.10;2.25;;;;;;;15.19;78.69;94890.38;5052770;28;20217;-64
2022/07/12 00:39:55;;;;;;;2.85;2.55;;;;;;;15.23;77.78;94912.16;5052534;28;20185;-64
2022/07/12 00:42:20;;;;;;;3.05;2.10;;;;;;;15.12;78.85;94897.06;5052837;28;20620;-64
2022/07/12 00:44:45;;;;;;;3.35;2.20;;;;;;;15.18;78.05;94918.69;5052408;28;20678;-64
2022/07/12 00:47:40;;;;;;;4.53;2.45;;;;;;;15.30;77.97;94909.78;5052071;28;20205;-64
2022/07/12 00:50:12;;;;;;;3.85;2.30;;;;;;;15.05;78.45;94889.16;5052319;28;20237;-64
2022/07/12 00:52:38;;;;;;;4.30;2.45;;;;;;;15.07;78.76;94900.06;5052487;28;20201;-64
2022/07/12 00:55:05;;;;;;;2.45;2.25;;;;;;;14.96;80.77;94868.81;5052207;28;20194;-65
2022/07/12 00:57:33;;;;;;;2.97;2.33;;;;;;;14.95;81.60;94862.06;5034263;28;20215;-64
2022/07/12 00:59:58;;;;;;;4.65;2.97;;;;;;;15.20;79.48;94904.78;5051762;28;20198;-64
2022/07/12 01:02:24;;;;;;;3.22;2.10;;;;;;;15.13;80.10;94893.53;5051336;28;20267;-64
2022/07/12 01:04:51;;;;;;;3.47;2.43;;;;;;;15.18;78.95;94918.69;5051237;28;20576;-65
2022/07/12 01:07:17;;;;;;;6.15;2.67;;;;;;;15.15;80.00;94899.31;5051828;28;20313;-63
2022/07/12 01:09:43;;;;;;;4.78;2.45;;;;;;;14.83;81.80;94864.06;5033957;28;20652;-64
2022/07/12 01:12:09;;;;;;;2.88;2.67;;;;;;;14.83;82.23;94869.19;5052284;28;20209;-64
2022/07/12 01:14:35;;;;;;;5.35;2.92;;;;;;;15.00;80.58;94903.38;5051831;28;20220;-64
2022/07/12 01:17:02;;;;;;;5.25;2.58;;;;;;;14.84;82.79;94873.38;5052045;28;20266;-64
2022/07/12 01:19:28;;;;;;;3.63;2.43;;;;;;;14.91;80.38;94912.75;5052027;28;20258;-65
2022/07/12 01:21:56;;;;;;;3.75;2.40;;;;;;;14.74;82.31;94882.09;5033767;28;20305;-65
2022/07/12 01:24:22;;;;;;;2.92;2.35;;;;;;;14.74;82.05;94895.69;5051712;28;20186;-64
2022/07/12 01:26:50;;;;;;;3.05;1.88;;;;;;;14.45;83.30;94879.78;5052086;28;20355;-64
2022/07/12 01:29:16;;;;;;;2.03;1.83;;;;;;;14.57;82.65;94896.50;5033609;28;20209;-64
2022/07/12 01:31:41;;;;;;;3.75;2.03;;;;;;;14.66;81.79;94898.19;5051842;28;20236;-64
2022/07/12 01:34:07;;;;;;;1.90;1.80;;;;;;;14.58;82.13;94893.03;5051666;28;20652;-64
2022/07/12 01:36:33;;;;;;;2.97;1.90;;;;;;;14.50;81.73;94900.63;5051616;28;20240;-64
2022/07/12 01:38:59;;;;;;;2.47;1.60;;;;;;;14.39;81.41;94893.16;5051460;28;20286;-63
2022/07/12 01:41:25;;;;;;;2.67;2.03;;;;;;;14.15;83.14;94880.13;5033587;28;20842;-63
2022/07/12 01:43:52;;;;;;;3.00;1.45;;;;;;;14.25;83.97;94880.88;5051660;28;20193;-62
2022/07/12 01:46:17;;;;;;;2.33;1.92;;;;;;;14.15;84.24;94875.03;5033484;28;20223;-64
2022/07/12 01:48:42;;;;;;;3.85;1.90;;;;;;;14.20;82.58;94903.53;5051480;28;20526;-64
2022/07/12 01:51:08;;;;;;;3.87;1.80;;;;;;;14.01;83.55;94888.31;5051543;28;20280;-64
2022/07/12 01:53:36;;;;;;;5.10;2.00;;;;;;;13.99;81.56;94915.75;5051575;28;20197;-62
2022/07/12 01:56:03;;;;;;;2.10;1.50;;;;;;;13.64;84.86;94870.50;5051466;28;20670;-62
2022/07/12 01:58:28;;;;;;;4.05;1.73;;;;;;;13.60;85.31;94874.28;5051324;28;20677;-62
2022/07/12 02:00:54;;;;;;;1.60;1.50;;;;;;;13.60;84.46;94888.81;5051380;28;20185;-61
2022/07/12 02:03:20;;;;;;;1.57;1.47;;;;;;;13.71;83.89;94893.72;5033599;28;20263;-62
2022/07/12 02:05:46;;;;;;;3.73;1.57;;;;;;;13.89;81.69;94920.94;5051478;28;20185;-60
2022/07/12 02:08:14;;;;;;;3.97;1.70;;;;;;;13.61;84.42;94891.25;5051381;28;20209;-64
2022/07/12 02:10:41;;;;;;;1.60;1.40;;;;;;;13.79;83.22;94909.97;5051243;28;20201;-63
2022/07/12 02:13:06;;;;;;;1.30;1.23;;;;;;;13.78;83.50;94897.31;5053671;28;20717;-62
2022/07/12 02:15:32;;;;;;;3.70;2.10;;;;;;;13.58;84.19;94886.41;5037514;28;20185;-63
2022/07/12 02:17:58;;;;;;;5.17;2.07;;;;;;;13.88;82.28;94918.50;5055532;28;20717;-62
2022/07/12 02:20:24;;;;;;;2.93;1.57;;;;;;;13.85;81.16;94932.41;5055217;28;20596;-60
2022/07/12 02:22:49;;;;;;;2.42;1.90;;;;;;;13.72;80.99;94937.03;5055477;28;20224;-63
2022/07/12 02:25:14;;;;;;;3.67;1.90;;;;;;;13.66;80.85;94937.59;5055167;28;20186;-61
2022/07/12 02:27:41;;;;;;;2.08;1.88;;;;;;;13.57;81.60;94929.97;5055155;28;20702;-63
2022/07/12 02:30:10;;;;;;;3.67;1.90;;;;;;;13.61;80.69;94931.31;5054980;28;20210;-65
2022/07/12 02:32:36;;;;;;;1.50;1.40;;;;;;;13.40;80.98;94936.63;5061677;22;20324;-62
2022/07/12 02:35:05;;;;;;;2.13;1.83;;;;;;;13.26;81.04;94922.56;5054931;28;20193;-65
2022/07/12 02:37:30;;;;;;;4.83;1.97;;;;;;;13.10;81.59;94912.13;5054876;28;20252;-62
2022/07/12 02:40:53;;;;;;;2.63;1.83;;;;;;;12.96;83.92;94887.03;5054839;28;20691;-63
2022/07/12 02:42:42;;;;;;;1.97;1.60;;;;;;;12.99;83.45;94896.94;5055176;28;20304;-62
2022/07/12 02:45:09;;;;;;;2.50;1.30;;;;;;;13.02;82.51;94906.88;5054706;28;20220;-61
2022/07/12 02:47:38;;;;;;;3.13;1.83;;;;;;;13.12;82.78;94909.44;5055035;28;20292;-61
2022/07/12 02:50:04;;;;;;;5.87;1.83;;;;;;;13.19;81.22;94931.69;5054748;28;20224;-61
2022/07/12 02:52:29;;;;;;;1.77;1.67;;;;;;;13.16;81.13;94937.09;5054479;28;20218;-63
2022/07/12 02:54:55;;;;;;;3.27;1.70;;;;;;;13.02;83.45;94895.84;5054572;28;20182;-63
2022/07/12 02:57:20;;;;;;;1.73;1.63;;;;;;;13.14;83.54;94894.78;5054694;28;20582;-64
2022/07/12 02:59:45;;;;;;;3.63;1.60;;;;;;;13.34;82.46;94919.31;5054566;28;20212;-65
2022/07/12 03:02:11;;;;;;;3.60;1.73;;;;;;;13.54;80.88;94958.34;5054268;28;20210;-60
2022/07/12 03:04:37;;;;;;;3.33;1.70;;;;;;;13.62;80.88;94956.69;5054279;28;20244;-61
2022/07/12 03:07:02;;;;;;;2.37;1.60;;;;;;;13.58;79.92;94963.03;5054567;28;20271;-60
2022/07/12 03:09:28;;;;;;;4.27;1.70;;;;;;;13.59;80.41;94962.09;5054053;28;20591;-60
2022/07/12 03:11:53;;;;;;;3.23;1.60;;;;;;;13.45;81.41;94952.34;5036144;28;20218;-59
2022/07/12 03:14:18;;;;;;;4.30;2.20;;;;;;;13.53;81.31;94949.91;5036152;28;20663;-59
2022/07/12 03:16:44;;;;;;;1.50;1.40;;;;;;;13.47;80.04;94973.44;5054301;28;20214;-61
2022/07/12 03:19:09;;;;;;;3.97;2.13;;;;;;;13.43;80.12;94969.56;5054238;28;20663;-59
2022/07/12 03:21:35;;;;;;;1.83;1.73;;;;;;;13.38;82.40;94934.22;5053898;28;20695;-61
2022/07/12 03:24:00;;;;;;;2.87;1.70;;;;;;;13.57;80.83;94963.19;5052881;28;20188;-61
2022/07/12 03:26:26;;;;;;;3.50;1.60;;;;;;;13.46;82.67;94931.75;5053916;28;20282;-61
2022/07/12 03:28:51;;;;;;;2.07;1.60;;;;;;;13.42;84.41;94917.66;5036075;28;20240;-64
2022/07/12 03:31:17;;;;;;;1.83;1.73;;;;;;;13.73;83.05;94958.28;5053479;28;20239;-64
2022/07/12 03:33:42;;;;;;;4.10;1.87;;;;;;;13.85;80.39;94990.38;5035835;28;20705;-64
2022/07/12 03:36:08;;;;;;;2.50;1.50;;;;;;;13.69;81.88;94955.19;5044012;22;20527;-62
2022/07/12 03:38:34;;;;;;;2.10;1.77;;;;;;;13.65;79.51;94984.53;5059574;22;20236;-61
2022/07/12 03:41:00;;;;;;;3.20;1.70;;;;;;;13.61;81.90;94956.84;5053611;28;20667;-61
2022/07/12 03:43:26;;;;;;;1.93;1.77;;;;;;;13.60;81.61;94956.03;5036041;28;20197;-61
2022/07/12 03:45:51;;;;;;;3.93;1.70;;;;;;;13.25;83.68;94920.16;5053659;28;20200;-62
2022/07/12 03:48:17;;;;;;;3.37;1.80;;;;;;;13.25;83.77;94930.38;5053490;28;20202;-60
2022/07/12 03:50:49;;;;;;;3.90;1.70;;;;;;;13.22;85.77;94915.31;5053682;28;20213;-60
2022/07/12 03:53:14;;;;;;;2.60;1.50;;;;;;;13.47;84.06;94935.91;5053912;28;20210;-60
2022/07/12 03:55:40;;;;;;;4.90;2.47;;;;;;;13.76;84.99;94928.13;5053406;28;20207;-64
2022/07/12 03:58:05;;;;;;;3.77;1.90;;;;;;;13.84;83.78;94952.97;5035416;28;20213;-62
2022/07/12 04:00:30;;;;;;;5.73;2.10;;;;;;;13.78;82.16;94969.66;5053372;28;20189;-60
2022/07/12 04:02:56;;;;;;;8.17;2.37;;;;;;;13.93;81.22;94991.28;5053469;28;20212;-61
2022/07/12 04:05:25;;;;;;;2.93;2.10;;;;;;;13.94;81.55;94979.28;5053325;28;20663;-61
2022/07/12 04:07:52;;;;;;;5.50;2.17;;;;;;;13.72;82.23;94959.19;5035164;28;20211;-61
2022/07/12 04:10:18;;;;;;;5.40;1.70;;;;;;;13.68;83.58;94942.53;5053010;28;20224;-61
2022/07/12 04:12:43;;;;;;;2.10;1.90;;;;;;;13.74;84.13;94942.78;5052850;28;20295;-61
2022/07/12 04:15:08;;;;;;;2.37;1.80;;;;;;;13.81;82.38;94973.69;5053047;28;20263;-61
2022/07/12 04:17:34;;;;;;;4.07;2.10;;;;;;;14.02;81.33;94984.47;5053172;28;20271;-62
2022/07/12 04:20:00;;;;;;;2.08;1.92;;;;;;;13.92;80.00;95014.41;5053058;28;20181;-62
2022/07/12 04:22:25;;;;;;;3.35;2.03;;;;;;;13.93;81.83;94990.47;5053077;28;20252;-64
2022/07/12 04:24:51;;;;;;;2.22;2.00;;;;;;;13.87;83.24;94973.13;5052875;28;20193;-65
2022/07/12 04:27:16;;;;;;;2.33;2.13;;;;;;;14.04;83.81;94957.84;5035050;28;20282;-64
2022/07/12 04:29:43;;;;;;;3.67;1.90;;;;;;;14.12;82.58;94977.56;5052685;28;20292;-61
2022/07/12 04:32:08;;;;;;;4.80;1.87;;;;;;;14.05;82.23;94997.00;5052756;28;20848;-64
2022/07/12 04:34:33;;;;;;;4.75;2.20;;;;;;;14.10;82.04;94994.78;5052650;28;20289;-65
2022/07/12 04:36:59;;;;;;;3.57;1.97;;;;;;;14.04;82.13;94980.03;5034629;28;20263;-64
2022/07/12 04:39:24;;;;;;;5.78;2.03;;;;;;;14.17;82.07;94990.75;5034567;28;20797;-65
2022/07/12 04:41:50;;;;;;;4.70;1.83;;;;;;;14.21;81.79;95005.66;5052351;28;20284;-64
2022/07/12 04:44:16;;;;;;;4.45;2.33;;;;;;;14.01;81.63;95011.00;5052497;28;20201;-67
2022/07/12 04:46:41;;;;;;;4.67;2.50;;;;;;;14.03;81.97;95001.44;5052546;28;20710;-60
2022/07/12 04:49:07;;;;;;;3.43;2.17;;;;;;;14.21;81.93;94992.06;5052455;28;20209;-65
2022/07/12 04:51:32;;;;;;;6.93;2.50;;;;;;;14.25;81.10;95018.97;5034380;28;20216;-64
2022/07/12 04:53:58;;;;;;;4.30;2.50;;;;;;;14.35;83.66;94972.88;5052620;28;20208;-62
2022/07/12 04:56:23;;;;;;;7.10;2.95;;;;;;;14.35;83.08;94985.69;5052568;28;20217;-62
2022/07/12 04:58:49;;;;;;;3.07;2.73;;;;;;;14.70;82.72;94999.31;5034493;28;20193;-62
2022/07/12 05:01:15;;;;;;;4.97;2.80;;;;;;;14.72;81.14;95023.00;5034398;28;20201;-64
2022/07/12 05:03:41;;;;;;;5.20;2.67;;;;;;;14.73;82.02;95001.56;5034200;28;20196;-64
2022/07/12 05:06:06;;;;;;;4.20;2.30;;;;;;;15.48;100.00;94990.81;5052197;28;20190;-66
2022/07/12 05:08:32;;;;;;;4.13;2.85;;;;;;;15.76;84.54;95088.84;5034161;28;20192;-64
2022/07/12 05:10:57;;;;;;;5.68;2.95;;;;;;;15.47;78.85;95126.78;5052262;28;20197;-65
2022/07/12 05:13:23;;;;;;;5.38;3.30;;;;;;;15.37;78.92;95116.56;5052191;28;20235;-61
2022/07/12 05:15:48;;;;;;;8.73;3.50;;;;;;;15.32;78.52;95130.75;5052323;28;20667;-63
2022/07/12 05:18:14;;;;;;;5.38;3.33;;;;;;;15.21;77.75;95126.66;5051902;28;20223;-63
2022/07/12 05:20:39;;;;;;;6.43;3.85;;;;;;;14.97;78.48;95108.50;5051976;28;20181;-63
2022/07/12 05:23:04;;;;;;;7.60;3.95;;;;;;;14.91;78.78;95093.72;5051915;28;20206;-62
2022/07/12 05:25:30;;;;;;;7.10;2.67;;;;;;;14.97;81.13;95052.97;5052246;28;20213;-62
2022/07/12 05:27:55;;;;;;;7.38;3.45;;;;;;;15.17;82.82;95045.94;5033784;28;20202;-62
2022/07/12 05:30:21;;;;;;;5.28;3.40;;;;;;;15.15;80.02;95086.25;5033921;28;20595;-61
2022/07/12 05:32:46;;;;;;;14.55;3.42;;;;;;;15.19;81.74;95054.28;5051710;28;20205;-64
2022/07/12 05:35:12;;;;;;;9.32;3.65;;;;;;;15.38;80.77;95077.19;5051791;28;20188;-65
2022/07/12 05:37:37;;;;;;;5.75;3.50;;;;;;;15.46;79.81;95100.34;5051555;28;20205;-64
2022/07/12 05:40:04;;;;;;;7.43;3.55;;;;;;;15.34;79.03;95100.69;5031763;28;20713;-62
2022/07/12 05:42:29;;;;;;;5.50;3.35;;;;;;;15.36;77.68;95116.72;5051995;28;20206;-62
2022/07/12 05:44:54;;;;;;;4.60;3.47;;;;;;;15.72;76.64;95144.75;5051829;28;20185;-61
2022/07/12 05:47:20;;;;;;;6.88;3.60;;;;;;;15.78;77.03;95128.78;5055022;28;20300;-62
2022/07/12 05:49:45;;;;;;;6.53;3.92;;;;;;;15.53;78.88;95095.44;5058301;28;20201;-61
2022/07/12 05:54:55;;;;;;;4.72;3.10;;;;;;;15.78;76.60;95128.78;5058354;28;20258;-62
2022/07/12 05:57:21;;;;;;;7.43;3.80;;;;;;;15.66;74.42;95167.59;5058309;28;20209;-63
2022/07/12 05:59:46;;;;;;;5.40;3.40;;;;;;;15.78;75.24;95143.34;5058437;28;20271;-61
2022/07/12 06:02:12;;;;;;;5.60;2.92;;;;;;;15.76;77.56;95094.78;5058245;28;20593;-61
2022/07/12 06:04:37;;;;;;;4.43;3.78;;;;;;;15.87;75.67;95139.91;5040472;28;20181;-62
2022/07/12 06:07:03;;;;;;;4.55;2.95;;;;;;;15.84;72.47;95204.28;5058419;28;20251;-63
2022/07/12 06:09:29;;;;;;;5.22;2.70;;;;;;;15.77;73.16;95180.19;5058140;28;20271;-65
2022/07/12 06:12:02;;;;;;;8.85;3.20;;;;;;;15.76;72.98;95169.13;5058697;28;20213;-62
2022/07/12 06:14:27;;;;;;;9.73;4.07;;;;;;;16.40;89.03;95009.63;5058160;28;20188;-62
2022/07/12 06:16:53;;;;;;;5.80;3.50;;;;;;;17.47;100.00;94977.78;5058392;28;20244;-60
2022/07/12 06:19:18;;;;;;;8.30;3.20;;;;;;;18.49;94.87;94980.34;5058195;28;20177;-60
2022/07/12 06:21:43;;;;;;;8.98;3.30;;;;;;;19.21;86.53;95064.09;5058228;28;20749;-63
2022/07/12 06:24:09;;;;;;;5.50;2.90;;;;;;;19.77;75.94;95169.47;5040221;28;20197;-61
2022/07/12 06:26:34;;;;;;;4.93;2.78;;;;;;;20.50;65.51;95323.84;5057908;28;20296;-59
2022/07/12 06:28:59;;;;;;;5.97;2.90;;;;;;;20.80;61.73;95367.69;5057871;28;20259;-59
2022/07/12 06:31:25;;;;;;;7.25;2.85;;;;;;;21.02;64.09;95233.38;5058126;28;20209;-61
2022/07/12 06:33:51;;;;;;;5.45;2.47;;;;;;;21.42;62.07;95275.09;5058009;28;20181;-61
2022/07/12 06:36:17;;;;;;;3.40;2.33;;;;;;;21.84;60.30;95252.88;5058004;28;20220;-61
2022/07/12 06:38:42;;;;;;;3.17;1.88;;;;;;;22.07;59.11;95250.91;5058065;28;20181;-60
2022/07/12 06:41:07;;;;;;;3.67;2.38;;;;;;;22.30;58.39;95241.16;5058154;28;20196;-62
2022/07/12 06:43:33;;;;;;;6.47;2.78;;;;;;;22.49;55.89;95272.41;5058019;28;20260;-61
2022/07/12 06:45:59;;;;;;;7.45;2.38;;;;;;;22.59;56.49;95246.19;5057881;28;20189;-60
2022/07/12 06:48:24;;;;;;;6.10;2.78;;;;;;;22.73;56.26;95239.28;5057888;28;20197;-62
2022/07/12 06:50:49;;;;;;;9.00;2.67;;;;;;;22.80;54.79;95253.94;5057732;28;20205;-63
2022/07/12 06:53:16;;;;;;;4.32;2.78;;;;;;;22.40;49.68;95319.38;5057635;28;20709;-62
2022/07/12 06:55:44;;;;;;;5.05;3.28;;;;;;;22.24;55.79;95195.28;5057581;28;20242;-63
2022/07/12 06:58:10;;;;;;;5.30;2.38;;;;;;;22.11;55.16;95200.34;5038770;28;20220;-63
2022/07/12 07:00:36;;;;;;;3.13;2.20;;;;;;;22.23;55.01;95204.03;5054662;28;20186;-62
2022/07/12 07:03:01;;;;;;;5.68;2.40;;;;;;;22.07;55.00;95191.34;5061498;22;20687;-61
2022/07/12 07:05:27;;;;;;;7.28;2.17;;;;;;;21.89;52.18;95235.00;5054446;28;20177;-62
2022/07/12 07:07:52;;;;;;;5.60;2.17;;;;;;;21.83;51.82;95248.69;5054475;28;20350;-60
2022/07/12 07:10:18;;;;;;;6.45;2.17;;;;;;;21.89;51.79;95251.34;5054312;28;20221;-62
2022/07/12 07:12:43;;;;;;;2.75;1.88;;;;;;;21.75;51.77;95245.19;5054562;28;20216;-60
2022/07/12 07:15:09;;;;;;;2.75;2.05;;;;;;;21.36;52.79;95224.06;5054138;28;20191;-61
2022/07/12 07:17:34;;;;;;;3.95;1.80;;;;;;;21.55;53.37;95207.16;5054341;28;20241;-61
2022/07/12 07:20:00;;;;;;;4.03;2.00;;;;;;;20.78;52.54;95226.66;5054136;28;20258;-61
2022/07/12 07:22:26;;;;;;;4.05;2.10;;;;;;;20.56;56.43;95143.06;5036277;28;20609;-59
2022/07/12 07:24:53;;;;;;;9.32;2.40;;;;;;;21.05;57.01;95137.38;5054262;28;20219;-59
2022/07/12 07:27:18;;;;;;;3.65;2.15;;;;;;;21.26;56.54;95150.31;5054043;28;20304;-61
2022/07/12 07:32:27;;;;;;;3.10;2.00;;;;;;;21.04;51.83;95236.59;5054853;28;20595;-62
2022/07/12 07:34:53;;;;;;;3.10;1.92;;;;;;;21.37;54.22;95176.50;5054212;28;20679;-63
2022/07/12 07:37:19;;;;;;;3.88;2.47;;;;;;;21.59;51.95;95240.22;5051141;23;20225;-61
2022/07/12 07:39:44;;;;;;;5.90;1.98;;;;;;;21.19;51.40;95234.81;5073731;28;20588;-62
2022/07/12 07:42:10;;;;;;;2.65;1.42;;;;;;;21.64;52.97;95204.25;5073849;28;20221;-62
2022/07/12 07:44:35;;;;;;;4.28;1.80;;;;;;;22.02;51.55;95229.97;5073743;28;20258;-62
2022/07/12 07:47:00;;;;;;;5.15;1.50;;;;;;;21.75;47.41;95302.13;5073858;28;20247;-61
2022/07/12 07:49:26;;;;;;;4.43;1.60;;;;;;;21.52;47.89;95265.25;5073549;28;20209;-61
2022/07/12 07:51:51;;;;;;;1.80;1.40;;;;;;;21.29;48.03;95269.72;5074027;28;20219;-62
2022/07/12 07:54:17;;;;;;;4.65;1.40;;;;;;;21.15;49.54;95234.34;5073425;28;20203;-61
2022/07/12 07:56:42;;;;;;;5.00;1.58;;;;;;;21.69;50.57;95219.25;5055850;28;20248;-62
2022/07/12 07:59:07;;;;;;;5.28;1.38;;;;;;;22.01;48.07;95274.97;5073331;28;20605;-61
2022/07/12 08:01:42;;;;;;;2.88;1.35;;;;;;;22.30;49.88;95229.00;5073431;28;20225;-60
2022/07/12 08:04:14;;;;;;;2.72;1.50;;;;;;;22.11;48.80;95244.38;5055300;28;20585;-60
2022/07/12 08:06:40;;;;;;;5.57;1.13;;;;;;;21.67;43.52;95355.81;5073156;28;20239;-60
2022/07/12 08:09:05;;;;;;;2.70;1.20;;;;;;;21.33;44.11;95325.31;5055328;28;20254;-61
2022/07/12 08:11:32;;;;;;;6.22;1.27;;;;;;;21.00;44.82;95293.00;5054881;28;20208;-60
2022/07/12 08:13:57;;;;;;;3.45;1.00;;;;;;;20.91;47.83;95232.00;5073111;28;20185;-60
2022/07/12 08:16:23;;;;;;;3.03;1.05;;;;;;;21.09;46.33;95260.91;5073034;28;20209;-58
2022/07/12 08:18:48;;;;;;;3.17;1.58;;;;;;;21.35;49.79;95183.63;5073057;28;20228;-61
2022/07/12 08:21:14;;;;;;;3.70;1.00;;;;;;;21.46;46.31;95249.63;5072920;28;20665;-60
2022/07/12 08:23:39;;;;;;;1.52;0.63;;;;;;;21.58;43.77;95316.28;5072852;28;20246;-58
2022/07/12 08:26:05;;;;;;;3.42;0.98;;;;;;;21.10;43.10;95313.44;5072938;28;20234;-59
2022/07/12 08:28:30;;;;;;;3.80;1.27;;;;;;;20.88;46.56;95216.88;5072636;28;20191;-63
2022/07/12 08:30:55;;;;;;;5.38;1.20;;;;;;;20.97;47.24;95208.03;5072503;28;20204;-62
2022/07/12 08:33:21;;;;;;;3.55;1.00;;;;;;;20.63;41.94;95318.88;5072579;28;20288;-62
2022/07/12 08:35:46;;;;;;;5.00;1.60;;;;;;;20.41;43.91;95274.00;5072755;28;20177;-61
2022/07/12 08:38:12;;;;;;;5.15;1.40;;;;;;;20.28;46.56;95209.22;5072580;28;20723;-62
2022/07/12 08:40:38;;;;;;;2.03;1.00;;;;;;;20.21;46.66;95212.69;5072735;28;20192;-60
2022/07/12 08:43:03;;;;;;;3.33;1.10;;;;;;;20.14;45.85;95229.84;5072435;28;20226;-64
2022/07/12 08:45:29;;;;;;;6.57;1.35;;;;;;;20.10;47.43;95188.84;5072426;28;20299;-63
2022/07/12 08:47:55;;;;;;;2.60;1.20;;;;;;;20.01;43.91;95271.72;5058312;22;20695;-64
2022/07/12 08:50:23;;;;;;;5.80;1.52;;;;;;;19.77;45.03;95240.91;5052419;28;20292;-63
2022/07/12 08:52:52;;;;;;;2.67;1.30;;;;;;;19.75;47.11;95189.47;5052215;28;20217;-63
2022/07/12 08:55:19;;;;;;;1.27;1.15;;;;;;;19.76;48.89;95154.13;5052251;28;20190;-62
2022/07/12 08:57:45;;;;;;;4.47;1.33;;;;;;;19.73;48.56;95159.66;5052637;28;20225;-59
2022/07/12 09:00:11;;;;;;;2.38;1.25;;;;;;;20.12;50.68;95107.84;5052287;28;20192;-60
2022/07/12 09:02:51;;;;;;;5.97;1.23;;;;;;;20.27;48.71;95157.75;5052462;28;20217;-61
2022/07/12 09:05:20;;;;;;;5.75;1.48;;;;;;;20.54;48.61;95154.56;5052095;28;20651;-62
2022/07/12 09:07:47;;;;;;;1.17;1.00;;;;;;;20.62;47.46;95175.97;5052146;28;20206;-60
2022/07/12 09:10:13;;;;;;;1.65;1.30;;;;;;;20.40;45.84;95210.41;5052068;28;20209;-64
2022/07/12 09:12:42;;;;;;;3.42;2.53;;;;;;;20.45;48.08;95159.03;5052058;28;20214;-63
2022/07/12 09:15:19;;;;;;;4.50;1.70;;;;;;;20.39;46.69;95192.50;5051954;28;20185;-63
2022/07/12 09:18:03;;;;;;;2.30;1.38;;;;;;;20.15;42.53;95291.63;5051648;28;20209;-63
2022/07/12 09:20:31;;;;;;;1.50;0.82;;;;;;;20.19;42.99;95269.69;5050408;28;20204;-64
2022/07/12 09:23:00;;;;;;;2.67;1.52;;;;;;;20.48;44.44;95227.63;5051337;28;20312;-65
2022/07/12 09:25:26;;;;;;;2.42;1.20;;;;;;;20.72;47.03;95167.94;5051838;28;20260;-63
2022/07/12 09:27:55;;;;;;;1.67;1.00;;;;;;;20.80;45.23;95201.44;5051955;28;20215;-61
2022/07/12 09:30:23;;;;;;;2.60;1.10;;;;;;;20.76;41.64;95290.66;5051681;28;20215;-61
2022/07/12 09:38:22;;;;;;;3.10;1.00;;;;;;;20.82;43.44;95228.72;5051975;28;20199;-60
2022/07/12 09:40:48;;;;;;;2.08;1.02;;;;;;;20.66;42.72;95251.34;5051498;28;20708;-59
2022/07/12 09:43:14;;;;;;;2.10;0.85;;;;;;;20.83;43.17;95243.25;5051463;28;20206;-61
2022/07/12 09:45:40;;;;;;;5.30;0.90;;;;;;;20.52;42.55;95242.56;5050051;28;20578;-60
2022/07/12 09:48:08;;;;;;;2.47;1.02;;;;;;;20.41;42.24;95268.03;5051786;28;20205;-66
2022/07/12 09:50:35;;;;;;;4.93;1.42;;;;;;;20.34;42.89;95246.47;5051417;28;20223;-61
2022/07/12 09:53:03;;;;;;;2.17;1.00;;;;;;;20.35;43.75;95219.66;5051395;28;20209;-62
2022/07/12 09:55:32;;;;;;;3.30;0.95;;;;;;;20.57;44.46;95209.28;5051413;28;20620;-61
2022/07/12 09:58:01;;;;;;;0.63;0.63;;;;;;;20.79;41.25;95287.72;5051596;28;20213;-61
2022/07/12 10:00:27;;;;;;;5.18;0.85;;;;;;;20.81;40.81;95283.97;5051515;28;20572;-61
2022/07/12 10:02:55;;;;;;;2.50;0.85;;;;;;;20.90;40.42;95282.94;5051390;28;20209;-61
2022/07/12 10:05:23;;;;;;;2.60;0.80;;;;;;;20.89;39.27;95296.00;5051442;28;20178;-60
2022/07/12 10:07:48;;;;;;;0.98;0.90;;;;;;;21.05;39.18;95300.25;5051733;28;20220;-60
2022/07/12 10:10:16;;;;;;;1.83;1.10;;;;;;;21.25;39.58;95284.00;5051255;28;20288;-60
2022/07/12 10:12:43;;;;;;;4.70;1.15;;;;;;;21.22;39.76;95279.22;5051538;28;20754;-59
2022/07/12 10:15:15;;;;;;;2.58;0.85;;;;;;;21.32;36.68;95353.94;5051245;28;20261;-59
2022/07/12 10:17:51;;;;;;;1.40;0.68;;;;;;;21.13;37.42;95319.06;5050073;28;20221;-64
2022/07/12 10:20:23;;;;;;;2.55;1.05;;;;;;;21.33;38.78;95265.81;5051273;28;20216;-63
2022/07/12 10:22:49;;;;;;;2.03;0.90;;;;;;;21.45;37.54;95298.00;5051190;28;20218;-61
2022/07/12 10:25:32;;;;;;;3.45;1.00;;;;;;;21.80;39.24;95251.59;5051227;28;20188;-62
2022/07/12 10:27:58;;;;;;;1.98;0.90;;;;;;;21.77;36.61;95305.34;5051362;28;20205;-62
2022/07/12 10:30:24;;;;;;;1.48;0.82;;;;;;;21.97;36.03;95307.38;5051032;28;20239;-63
2022/07/12 10:32:53;;;;;;;3.05;0.82;;;;;;;22.10;37.10;95273.88;5051695;28;20217;-62
2022/07/12 10:35:21;;;;;;;2.28;0.95;;;;;;;22.31;36.20;95286.81;5054669;28;20671;-63
2022/07/12 10:38:11;;;;;;;3.08;0.95;;;;;;;22.40;36.60;95264.97;5055012;28;20781;-61
2022/07/12 10:40:37;;;;;;;1.73;0.80;;;;;;;22.65;37.37;95232.47;5054714;28;20228;-64
2022/07/12 10:43:06;;;;;;;2.25;0.70;;;;;;;22.49;36.23;95276.78;5054867;28;20209;-60
2022/07/12 10:45:36;;;;;;;2.80;0.93;;;;;;;22.39;37.92;95221.88;5053407;28;20281;-61
2022/07/12 10:48:04;;;;;;;2.92;0.70;;;;;;;22.12;38.10;95218.28;5054455;28;20221;-60
2022/07/12 10:51:00;;;;;;;2.10;0.60;;;;;;;21.94;36.87;95251.59;5054540;28;20217;-63
2022/07/12 10:53:45;;;;;;;3.00;0.88;;;;;;;22.03;36.75;95245.31;5054520;28;20200;-60
2022/07/12 10:56:22;;;;;;;1.80;0.90;;;;;;;22.68;38.29;95213.97;5054780;28;20545;-65
2022/07/12 10:58:53;;;;;;;3.65;0.77;;;;;;;22.38;37.65;95218.50;5054495;28;20188;-64
2022/07/12 11:01:21;;;;;;;3.08;0.95;;;;;;;22.77;38.67;95194.66;5055012;28;20213;-64
2022/07/12 11:03:50;;;;;;;3.22;0.73;;;;;;;22.80;36.36;95237.56;5054332;28;20197;-62
2022/07/12 11:06:25;;;;;;;2.63;0.80;;;;;;;22.49;35.44;95269.00;5054584;28;20752;-65
2022/07/12 11:08:52;;;;;;;1.33;0.68;;;;;;;22.30;36.55;95229.00;5054258;28;20227;-64
2022/07/12 11:11:19;;;;;;;2.38;0.77;;;;;;;22.51;38.70;95187.50;5054337;28;20243;-62
2022/07/12 11:13:45;;;;;;;7.20;1.13;;;;;;;23.03;37.84;95205.16;5054432;28;20327;-64
2022/07/12 11:16:11;;;;;;;2.90;1.00;;;;;;;23.58;38.08;95195.59;5054526;28;20265;-65
2022/07/12 11:18:37;;;;;;;2.78;0.90;;;;;;;24.10;37.32;95217.31;5054240;28;20742;-61
2022/07/12 11:21:04;;;;;;;1.73;0.88;;;;;;;23.97;35.39;95271.84;5054210;28;20189;-59
2022/07/12 11:23:30;;;;;;;1.05;0.90;;;;;;;23.87;35.34;95257.63;5053886;28;20198;-61
2022/07/12 11:25:56;;;;;;;3.20;0.93;;;;;;;23.93;38.49;95176.31;5054072;28;20193;-61
2022/07/12 11:28:26;;;;;;;2.00;0.75;;;;;;;23.47;35.36;95253.31;5053925;28;20177;-64
2022/07/12 11:30:52;;;;;;;1.92;0.95;;;;;;;23.03;35.87;95246.66;5053903;28;20208;-61
2022/07/12 11:33:18;;;;;;;2.20;0.90;;;;;;;22.79;36.00;95231.56;5053708;28;20579;-64
2022/07/12 11:35:47;;;;;;;0.65;0.63;;;;;;;23.05;36.39;95225.72;5053653;28;20291;-63
2022/07/12 11:38:13;;;;;;;1.70;1.02;;;;;;;23.21;37.45;95192.47;5053840;28;20216;-63
2022/07/12 11:40:38;;;;;;;1.08;0.65;;;;;;;23.25;35.66;95230.00;5053811;28;20571;-63
2022/07/12 11:43:05;;;;;;;3.83;1.17;;;;;;;23.13;37.46;95184.03;5053674;28;20593;-63